sensor_id;sensor_type;location;lat;lon;timestamp;temperature;humidity
16178;DHT22;8195;51.220;9.746;2023-02-18T00:06:58;8.20;97.20
16178;DHT22;8195;51.220;9.746;2023-02-18T00:16:59;8.20;97.20
16178;DHT22;8195;51.220;9.746;2023-02-18T00:26:59;8.20;97.20
16178;DHT22;8195;51.220;9.746;2023-02-18T00:37:00;8.30;97.20
16178;DHT22;8195;51.220;9.746;2023-02-18T00:47:00;8.30;97.20
16178;DHT22;8195;51.220;9.746;2023-02-18T00:57:01;8.30;97.20
16178;DHT22;8195;51.220;9.746;2023-02-18T01:07:01;8.30;97.20
16178;DHT22;8195;51.220;9.746;2023-02-18T01:17:02;8.40;97.20
16178;DHT22;8195;51.220;9.746;2023-02-18T01:27:03;8.30;97.20
16178;DHT22;8195;51.220;9.746;2023-02-18T01:37:03;8.30;97.20
16178;DHT22;8195;51.220;9.746;2023-02-18T01:47:04;8.30;97.20
16178;DHT22;8195;51.220;9.746;2023-02-18T02:07:21;8.30;97.20
16178;DHT22;8195;51.220;9.746;2023-02-18T02:37:55;8.40;97.20
16178;DHT22;8195;51.220;9.746;2023-02-18T02:48:24;8.50;97.20
16178;DHT22;8195;51.220;9.746;2023-02-18T02:58:28;8.50;97.20
16178;DHT22;8195;51.220;9.746;2023-02-18T03:08:55;8.50;97.20
16178;DHT22;8195;51.220;9.746;2023-02-18T03:29:25;8.70;97.20
16178;DHT22;8195;51.220;9.746;2023-02-18T03:39:29;8.60;97.20
16178;DHT22;8195;51.220;9.746;2023-02-18T03:49:30;8.60;97.20
16178;DHT22;8195;51.220;9.746;2023-02-18T03:59:31;8.60;97.20
16178;DHT22;8195;51.220;9.746;2023-02-18T04:09:31;8.70;97.20
16178;DHT22;8195;51.220;9.746;2023-02-18T04:19:32;8.70;97.20
16178;DHT22;8195;51.220;9.746;2023-02-18T04:29:32;8.70;97.20
16178;DHT22;8195;51.220;9.746;2023-02-18T04:39:33;8.70;97.20
16178;DHT22;8195;51.220;9.746;2023-02-18T04:49:34;8.80;97.20
16178;DHT22;8195;51.220;9.746;2023-02-18T04:59:34;8.70;97.20
16178;DHT22;8195;51.220;9.746;2023-02-18T05:09:35;8.80;97.20
16178;DHT22;8195;51.220;9.746;2023-02-18T05:19:35;8.80;97.20
16178;DHT22;8195;51.220;9.746;2023-02-18T05:29:36;8.80;97.20
16178;DHT22;8195;51.220;9.746;2023-02-18T05:39:37;8.80;97.20
16178;DHT22;8195;51.220;9.746;2023-02-18T05:49:38;8.80;97.20
16178;DHT22;8195;51.220;9.746;2023-02-18T05:59:39;8.80;97.20
16178;DHT22;8195;51.220;9.746;2023-02-18T06:09:40;8.80;97.20
16178;DHT22;8195;51.220;9.746;2023-02-18T06:19:41;8.80;97.20
16178;DHT22;8195;51.220;9.746;2023-02-18T06:29:41;8.80;97.20
16178;DHT22;8195;51.220;9.746;2023-02-18T06:39:42;8.70;97.20
16178;DHT22;8195;51.220;9.746;2023-02-18T06:49:42;8.70;97.20
16178;DHT22;8195;51.220;9.746;2023-02-18T06:59:43;8.70;97.20
16178;DHT22;8195;51.220;9.746;2023-02-18T07:09:43;8.80;97.20
16178;DHT22;8195;51.220;9.746;2023-02-18T07:19:44;8.80;97.20
16178;DHT22;8195;51.220;9.746;2023-02-18T07:29:45;8.80;97.20
16178;DHT22;8195;51.220;9.746;2023-02-18T07:39:46;8.90;97.20
16178;DHT22;8195;51.220;9.746;2023-02-18T07:49:46;8.90;97.20
16178;DHT22;8195;51.220;9.746;2023-02-18T07:59:47;8.90;97.20
16178;DHT22;8195;51.220;9.746;2023-02-18T08:09:47;9.00;97.20
16178;DHT22;8195;51.220;9.746;2023-02-18T08:19:48;9.00;97.20
16178;DHT22;8195;51.220;9.746;2023-02-18T08:29:49;9.00;97.20
16178;DHT22;8195;51.220;9.746;2023-02-18T08:39:49;9.00;97.20
16178;DHT22;8195;51.220;9.746;2023-02-18T08:49:52;9.20;97.20
16178;DHT22;8195;51.220;9.746;2023-02-18T08:59:52;9.20;97.20
16178;DHT22;8195;51.220;9.746;2023-02-18T09:09:53;9.20;97.20
16178;DHT22;8195;51.220;9.746;2023-02-18T09:19:54;9.90;97.20
16178;DHT22;8195;51.220;9.746;2023-02-18T09:29:54;9.30;97.20
16178;DHT22;8195;51.220;9.746;2023-02-18T09:39:55;9.30;97.20
16178;DHT22;8195;51.220;9.746;2023-02-18T09:50:05;9.30;97.20
16178;DHT22;8195;51.220;9.746;2023-02-18T10:00:14;9.30;97.20
16178;DHT22;8195;51.220;9.746;2023-02-18T10:10:21;9.40;97.20
16178;DHT22;8195;51.220;9.746;2023-02-18T10:20:27;9.40;97.20
16178;DHT22;8195;51.220;9.746;2023-02-18T10:30:39;9.50;97.20
16178;DHT22;8195;51.220;9.746;2023-02-18T10:50:54;9.80;97.20
16178;DHT22;8195;51.220;9.746;2023-02-18T11:00:55;10.00;97.20
16178;DHT22;8195;51.220;9.746;2023-02-18T11:10:57;9.90;97.20
16178;DHT22;8195;51.220;9.746;2023-02-18T11:21:05;9.90;97.20
16178;DHT22;8195;51.220;9.746;2023-02-18T11:31:06;9.60;97.20
16178;DHT22;8195;51.220;9.746;2023-02-18T11:41:09;9.40;97.20
16178;DHT22;8195;51.220;9.746;2023-02-18T11:51:25;9.20;97.20
16178;DHT22;8195;51.220;9.746;2023-02-18T12:01:37;8.90;97.20
16178;DHT22;8195;51.220;9.746;2023-02-18T12:11:45;8.70;97.20
16178;DHT22;8195;51.220;9.746;2023-02-18T12:21:51;8.70;97.20
16178;DHT22;8195;51.220;9.746;2023-02-18T12:32:17;8.70;97.20
16178;DHT22;8195;51.220;9.746;2023-02-18T13:03:35;8.70;97.20
16178;DHT22;8195;51.220;9.746;2023-02-18T13:24:08;8.70;97.20
16178;DHT22;8195;51.220;9.746;2023-02-18T13:34:20;8.70;97.20
16178;DHT22;8195;51.220;9.746;2023-02-18T13:54:31;8.70;97.20
16178;DHT22;8195;51.220;9.746;2023-02-18T14:14:41;8.70;97.20
16178;DHT22;8195;51.220;9.746;2023-02-18T14:24:46;8.70;97.20
16178;DHT22;8195;51.220;9.746;2023-02-18T14:34:52;8.80;97.20
16178;DHT22;8195;51.220;9.746;2023-02-18T14:55:42;8.80;97.20
16178;DHT22;8195;51.220;9.746;2023-02-18T15:05:44;8.90;97.20
16178;DHT22;8195;51.220;9.746;2023-02-18T15:15:49;8.90;97.20
16178;DHT22;8195;51.220;9.746;2023-02-18T15:25:52;8.90;97.20
16178;DHT22;8195;51.220;9.746;2023-02-18T15:36:05;8.80;97.20
16178;DHT22;8195;51.220;9.746;2023-02-18T15:46:12;9.00;97.20
16178;DHT22;8195;51.220;9.746;2023-02-18T15:56:20;8.90;97.20
16178;DHT22;8195;51.220;9.746;2023-02-18T16:06:24;8.90;97.20
16178;DHT22;8195;51.220;9.746;2023-02-18T16:16:34;8.80;97.20
16178;DHT22;8195;51.220;9.746;2023-02-18T16:36:38;8.80;97.20
16178;DHT22;8195;51.220;9.746;2023-02-18T16:46:39;8.80;97.20
16178;DHT22;8195;51.220;9.746;2023-02-18T16:56:39;8.70;97.20
16178;DHT22;8195;51.220;9.746;2023-02-18T17:06:40;8.70;97.20
16178;DHT22;8195;51.220;9.746;2023-02-18T17:16:41;8.70;97.20
16178;DHT22;8195;51.220;9.746;2023-02-18T17:26:42;8.70;97.20
16178;DHT22;8195;51.220;9.746;2023-02-18T17:36:43;8.70;97.20
16178;DHT22;8195;51.220;9.746;2023-02-18T17:46:43;8.70;97.20
16178;DHT22;8195;51.220;9.746;2023-02-18T17:56:45;8.70;97.20
16178;DHT22;8195;51.220;9.746;2023-02-18T18:06:45;8.60;97.20
16178;DHT22;8195;51.220;9.746;2023-02-18T18:16:46;8.60;97.20
16178;DHT22;8195;51.220;9.746;2023-02-18T18:26:47;8.70;97.20
16178;DHT22;8195;51.220;9.746;2023-02-18T18:36:47;8.70;97.20
16178;DHT22;8195;51.220;9.746;2023-02-18T18:46:51;8.70;97.20
16178;DHT22;8195;51.220;9.746;2023-02-18T18:56:52;8.60;97.20
16178;DHT22;8195;51.220;9.746;2023-02-18T19:06:52;8.60;97.20
16178;DHT22;8195;51.220;9.746;2023-02-18T19:16:53;8.60;97.20
16178;DHT22;8195;51.220;9.746;2023-02-18T19:26:53;8.60;97.20
16178;DHT22;8195;51.220;9.746;2023-02-18T19:36:54;8.60;97.20
16178;DHT22;8195;51.220;9.746;2023-02-18T19:46:55;8.60;97.20
16178;DHT22;8195;51.220;9.746;2023-02-18T19:56:56;8.60;97.20
16178;DHT22;8195;51.220;9.746;2023-02-18T20:06:57;8.70;97.20
16178;DHT22;8195;51.220;9.746;2023-02-18T20:16:57;8.60;97.20
16178;DHT22;8195;51.220;9.746;2023-02-18T20:26:58;8.50;97.20
16178;DHT22;8195;51.220;9.746;2023-02-18T20:37:00;8.50;97.20
16178;DHT22;8195;51.220;9.746;2023-02-18T20:47:00;8.50;97.20
16178;DHT22;8195;51.220;9.746;2023-02-18T20:57:01;8.50;97.20
16178;DHT22;8195;51.220;9.746;2023-02-18T21:07:02;8.40;97.20
16178;DHT22;8195;51.220;9.746;2023-02-18T21:17:02;8.40;97.20
16178;DHT22;8195;51.220;9.746;2023-02-18T21:27:03;8.50;97.20
16178;DHT22;8195;51.220;9.746;2023-02-18T21:37:03;8.30;97.20
16178;DHT22;8195;51.220;9.746;2023-02-18T21:47:04;8.30;97.20
16178;DHT22;8195;51.220;9.746;2023-02-18T21:57:08;8.30;97.20
16178;DHT22;8195;51.220;9.746;2023-02-18T22:07:09;8.30;97.20
16178;DHT22;8195;51.220;9.746;2023-02-18T22:17:10;8.40;97.20
16178;DHT22;8195;51.220;9.746;2023-02-18T22:27:11;8.40;97.20
16178;DHT22;8195;51.220;9.746;2023-02-18T22:37:11;8.30;97.20
16178;DHT22;8195;51.220;9.746;2023-02-18T22:47:12;8.40;97.20
16178;DHT22;8195;51.220;9.746;2023-02-18T22:57:13;8.40;97.20
16178;DHT22;8195;51.220;9.746;2023-02-18T23:07:13;8.40;97.20
16178;DHT22;8195;51.220;9.746;2023-02-18T23:17:14;8.50;97.20
16178;DHT22;8195;51.220;9.746;2023-02-18T23:27:14;8.40;97.20
16178;DHT22;8195;51.220;9.746;2023-02-18T23:37:15;8.50;97.20
16178;DHT22;8195;51.220;9.746;2023-02-18T23:47:16;8.50;97.20
16178;DHT22;8195;51.220;9.746;2023-02-18T23:57:16;8.50;97.20
